createdAt,value
2023-05-03T00:03:24.001Z,4.77
2023-05-03T00:08:26.957Z,4.23
2023-05-03T00:13:29.949Z,4.40
2023-05-03T00:18:32.953Z,4.77
2023-05-03T00:23:35.854Z,6.10
2023-05-03T00:28:39.256Z,4.87
2023-05-03T00:33:42.431Z,6.57
2023-05-03T00:38:45.480Z,4.97
2023-05-03T00:43:48.464Z,4.67
2023-05-03T00:48:51.505Z,5.10
2023-05-03T00:53:54.688Z,6.83
2023-05-03T00:58:58.200Z,6.30
2023-05-03T01:04:03.164Z,5.53
2023-05-03T01:09:23.918Z,6.10
2023-05-03T01:14:51.595Z,6.07
2023-05-03T01:20:08.756Z,5.50
2023-05-03T01:25:14.081Z,6.63
2023-05-03T01:30:17.484Z,6.57
2023-05-03T01:35:42.409Z,7.37
2023-05-03T01:41:01.086Z,6.00
2023-05-03T01:46:04.646Z,6.07
2023-05-03T01:51:07.687Z,6.20
2023-05-03T01:56:10.710Z,7.13
2023-05-03T02:01:13.944Z,4.63
2023-05-03T02:06:16.984Z,8.17
2023-05-03T02:11:21.693Z,6.87
2023-05-03T02:16:24.776Z,8.47
2023-05-03T02:21:27.810Z,5.70
2023-05-03T02:26:30.692Z,6.47
2023-05-03T02:31:33.660Z,9.07
2023-05-03T02:36:36.780Z,8.40
2023-05-03T02:41:39.783Z,7.97
2023-05-03T02:46:42.835Z,10.60
2023-05-03T02:51:46.013Z,8.10
2023-05-03T02:56:49.190Z,7.93
2023-05-03T03:01:52.604Z,8.00
2023-05-03T03:06:57.195Z,10.97
2023-05-03T03:12:05.681Z,7.90
2023-05-03T03:17:12.236Z,8.63
2023-05-03T03:22:15.271Z,10.23
2023-05-03T03:27:18.095Z,9.27
2023-05-03T03:32:21.930Z,8.40
2023-05-03T03:37:25.078Z,8.90
2023-05-03T03:42:28.010Z,11.57
2023-05-03T03:47:31.077Z,10.80
2023-05-03T03:52:34.151Z,11.03
2023-05-03T03:57:37.079Z,10.13
2023-05-03T04:02:41.024Z,10.93
2023-05-03T04:07:43.961Z,11.10
2023-05-03T04:12:47.121Z,8.83
2023-05-03T04:17:50.057Z,8.53
2023-05-03T04:22:53.166Z,9.97
2023-05-03T04:27:56.190Z,10.10
2023-05-03T04:33:00.851Z,9.07
2023-05-03T04:38:04.264Z,10.67
2023-05-03T04:43:07.643Z,13.48
2023-05-03T04:48:10.537Z,14.00
2023-05-03T04:53:13.487Z,10.30
2023-05-03T04:58:16.625Z,8.37
2023-05-03T05:03:19.555Z,8.03
2023-05-03T05:08:23.133Z,7.33
2023-05-03T05:13:26.480Z,6.47
2023-05-03T05:18:29.398Z,7.83
2023-05-03T05:23:32.514Z,8.60
2023-05-03T05:28:35.430Z,6.30
2023-05-03T05:33:38.525Z,6.00
2023-05-03T05:38:42.843Z,7.00
2023-05-03T05:43:45.852Z,6.23
2023-05-03T05:48:48.656Z,5.90
2023-05-03T05:53:51.631Z,6.47
2023-05-03T05:58:54.479Z,5.35
2023-05-03T06:03:57.378Z,6.80
2023-05-03T06:09:04.764Z,6.50
2023-05-03T06:14:13.092Z,6.60
2023-05-03T06:19:16.370Z,5.55
2023-05-03T06:24:21.392Z,5.22
2023-05-03T06:29:25.113Z,4.68
2023-05-03T06:34:30.693Z,4.32
2023-05-03T06:39:33.802Z,3.60
2023-05-03T06:44:36.904Z,3.80
2023-05-03T06:49:41.302Z,3.92
2023-05-03T06:54:44.769Z,4.03
2023-05-03T06:59:49.624Z,3.80
2023-05-03T07:04:53.072Z,3.42
2023-05-03T07:09:59.808Z,4.07
2023-05-03T07:15:02.741Z,4.60
2023-05-03T07:20:06.866Z,3.28
2023-05-03T07:25:10.111Z,3.78
2023-05-03T07:30:13.581Z,4.65
2023-05-03T07:35:17.029Z,4.22
2023-05-03T07:40:19.797Z,3.97
2023-05-03T07:45:22.573Z,3.47
2023-05-03T07:50:25.582Z,3.78
2023-05-03T07:55:30.276Z,3.13
2023-05-03T08:00:33.273Z,3.42
2023-05-03T08:05:36.823Z,2.67
2023-05-03T08:10:39.880Z,2.83
2023-05-03T08:15:42.698Z,2.67
2023-05-03T08:20:47.163Z,3.05
2023-05-03T08:25:50.290Z,2.28
2023-05-03T08:30:53.444Z,2.20
2023-05-03T08:35:56.302Z,2.60
2023-05-03T08:41:03.926Z,2.03
2023-05-03T08:46:10.929Z,2.15
2023-05-03T08:51:16.869Z,2.25
2023-05-03T08:56:41.945Z,2.67
2023-05-03T09:01:44.980Z,2.38
2023-05-03T09:06:48.138Z,2.47
2023-05-03T09:11:52.808Z,2.22
2023-05-03T09:16:56.126Z,2.35
2023-05-03T09:22:08.023Z,2.85
2023-05-03T09:27:22.196Z,2.30
2023-05-03T09:32:25.798Z,2.10
2023-05-03T09:37:38.864Z,2.33
2023-05-03T09:43:03.684Z,2.90
2023-05-03T09:48:08.845Z,2.45
2023-05-03T09:53:11.706Z,2.60
2023-05-03T09:58:16.697Z,2.88
2023-05-03T10:03:28.540Z,2.60
2023-05-03T10:08:45.671Z,2.67
2023-05-03T10:13:48.872Z,2.95
2023-05-03T10:19:06.056Z,2.47
2023-05-03T10:24:16.632Z,2.95
2023-05-03T10:29:34.780Z,2.78
2023-05-03T10:34:39.820Z,2.80
2023-05-03T10:39:46.758Z,3.20
2023-05-03T10:44:49.861Z,2.47
2023-05-03T10:50:14.754Z,2.28
2023-05-03T10:55:24.879Z,2.10
2023-05-03T11:00:37.942Z,2.75
2023-05-03T11:05:40.908Z,2.88
2023-05-03T11:10:49.565Z,3.47
2023-05-03T11:15:56.678Z,3.43
2023-05-03T11:20:59.994Z,3.20
2023-05-03T11:26:06.862Z,3.70
2023-05-03T11:31:13.685Z,3.20
2023-05-03T11:36:17.117Z,2.63
2023-05-03T11:41:20.208Z,3.40
2023-05-03T11:46:31.923Z,2.90
2023-05-03T11:51:35.805Z,2.63
2023-05-03T11:56:38.769Z,2.65
2023-05-03T12:01:43.465Z,2.80
2023-05-03T12:06:54.005Z,2.60
2023-05-03T12:11:58.869Z,2.83
2023-05-03T12:17:02.849Z,2.35
2023-05-03T12:22:23.944Z,2.67
2023-05-03T12:27:28.870Z,3.22
2023-05-03T12:32:32.047Z,2.50
2023-05-03T12:37:38.319Z,2.45
2023-05-03T12:42:43.317Z,2.30
2023-05-03T12:47:49.921Z,2.95
2023-05-03T12:52:53.772Z,2.40
2023-05-03T12:58:18.027Z,2.45
2023-05-03T13:03:22.067Z,2.92
2023-05-03T13:08:33.563Z,2.60
2023-05-03T13:13:37.377Z,2.70
2023-05-03T13:18:43.042Z,3.65
2023-05-03T13:23:47.871Z,2.58
2023-05-03T13:28:51.139Z,2.63
2023-05-03T13:33:54.594Z,2.80
2023-05-03T13:38:58.215Z,2.53
2023-05-03T13:44:01.394Z,2.55
2023-05-03T13:49:08.384Z,2.78
2023-05-03T13:54:11.294Z,2.70
2023-05-03T13:59:14.578Z,3.25
2023-05-03T14:04:18.451Z,2.88
2023-05-03T14:09:21.486Z,2.80
2023-05-03T14:14:27.814Z,2.92
2023-05-03T14:19:30.975Z,3.30
2023-05-03T14:24:33.932Z,2.40
2023-05-03T14:29:36.970Z,2.30
2023-05-03T14:34:40.222Z,2.45
2023-05-03T14:39:43.344Z,2.22
2023-05-03T14:44:46.842Z,2.30
2023-05-03T14:49:51.197Z,2.67
2023-05-03T14:54:54.618Z,2.42
2023-05-03T14:59:58.421Z,2.40
2023-05-03T15:05:03.640Z,2.80
2023-05-03T15:10:07.994Z,2.70
2023-05-03T15:15:12.124Z,3.03
2023-05-03T15:20:15.908Z,2.95
2023-05-03T15:25:19.200Z,3.20
2023-05-03T15:30:22.357Z,3.20
2023-05-03T15:35:25.521Z,3.28
2023-05-03T15:40:29.018Z,2.95
2023-05-03T15:45:32.975Z,3.40
2023-05-03T15:50:36.073Z,3.10
2023-05-03T15:55:39.184Z,3.22
2023-05-03T16:00:42.464Z,3.60
2023-05-03T16:05:46.917Z,2.95
2023-05-03T16:10:50.084Z,3.17
2023-05-03T16:15:56.521Z,3.00
2023-05-03T16:21:01.043Z,3.70
2023-05-03T16:26:14.574Z,3.30
2023-05-03T16:31:18.036Z,3.47
2023-05-03T16:36:20.869Z,3.78
2023-05-03T16:41:24.524Z,4.20
2023-05-03T16:46:27.604Z,4.20
2023-05-03T16:51:31.635Z,4.20
2023-05-03T16:56:34.827Z,4.10
2023-05-03T17:01:37.720Z,4.30
2023-05-03T17:06:40.960Z,3.85
2023-05-03T17:11:44.077Z,4.18
2023-05-03T17:16:49.036Z,3.25
2023-05-03T17:21:52.729Z,3.67
2023-05-03T17:26:56.806Z,4.10
2023-05-03T17:31:59.855Z,6.05
2023-05-03T17:37:02.989Z,3.80
2023-05-03T17:42:06.594Z,4.05
2023-05-03T17:47:11.036Z,4.07
2023-05-03T17:52:13.980Z,4.65
2023-05-03T17:57:17.159Z,3.38
2023-05-03T18:02:21.377Z,4.05
2023-05-03T18:07:25.101Z,4.00
2023-05-03T18:12:28.514Z,3.35
2023-05-03T18:17:32.122Z,3.20
2023-05-03T18:22:35.175Z,3.53
2023-05-03T18:27:38.264Z,3.13
2023-05-03T18:32:41.206Z,3.13
2023-05-03T18:37:44.575Z,3.03
2023-05-03T18:42:47.432Z,6.90
2023-05-03T18:47:50.445Z,3.85
2023-05-03T18:52:54.670Z,3.80
2023-05-03T18:57:58.942Z,3.83
2023-05-03T19:03:02.012Z,3.03
2023-05-03T19:08:05.721Z,3.63
2023-05-03T19:13:09.219Z,2.88
2023-05-03T19:18:14.765Z,2.67
2023-05-03T19:23:19.738Z,2.30
2023-05-03T19:28:22.948Z,2.95
2023-05-03T19:33:26.145Z,2.70
2023-05-03T19:38:29.124Z,3.70
2023-05-03T19:43:32.505Z,3.38
2023-05-03T19:48:35.756Z,2.33
2023-05-03T19:53:38.772Z,2.30
2023-05-03T19:58:41.994Z,2.70
2023-05-03T20:03:45.286Z,2.80
2023-05-03T20:08:49.449Z,2.65
2023-05-03T20:13:52.187Z,3.42
2023-05-03T20:18:55.482Z,3.53
2023-05-03T20:23:58.822Z,3.20
2023-05-03T20:29:01.575Z,2.60
2023-05-03T20:34:04.332Z,2.78
2023-05-03T20:39:09.611Z,3.45
2023-05-03T20:44:13.813Z,2.65
2023-05-03T20:49:16.823Z,2.30
2023-05-03T20:54:19.795Z,2.30
2023-05-03T20:59:22.854Z,2.72
2023-05-03T21:04:26.794Z,3.08
2023-05-03T21:09:30.556Z,3.30
2023-05-03T21:14:33.748Z,2.28
2023-05-03T21:19:36.678Z,2.65
2023-05-03T21:24:40.386Z,2.88
2023-05-03T21:29:44.674Z,2.85
2023-05-03T21:34:47.689Z,2.53
2023-05-03T21:40:01.043Z,3.40
2023-05-03T21:45:05.489Z,2.67
2023-05-03T21:50:08.820Z,3.22
2023-05-03T21:55:12.356Z,3.80
2023-05-03T22:00:19.540Z,3.80
2023-05-03T22:05:22.474Z,5.03
2023-05-03T22:10:25.874Z,3.35
2023-05-03T22:15:32.251Z,3.15
2023-05-03T22:20:35.396Z,2.80
2023-05-03T22:25:38.789Z,3.30
2023-05-03T22:30:41.865Z,2.92
2023-05-03T22:35:44.944Z,3.13
2023-05-03T22:40:47.946Z,2.60
2023-05-03T22:45:50.907Z,2.90
2023-05-03T22:50:53.898Z,2.50
2023-05-03T22:56:04.398Z,2.92
2023-05-03T23:01:11.898Z,2.75
2023-05-03T23:06:15.344Z,3.00
2023-05-03T23:11:18.561Z,3.00
2023-05-03T23:16:22.028Z,3.43
2023-05-03T23:21:25.283Z,3.80
2023-05-03T23:26:29.151Z,2.42
2023-05-03T23:31:33.854Z,2.88
2023-05-03T23:36:38.847Z,3.17
2023-05-03T23:41:41.919Z,3.23
2023-05-03T23:46:44.947Z,3.20
2023-05-03T23:51:47.958Z,3.05
2023-05-03T23:56:51.418Z,4.03
